Time;durP1;ratioP1;P1;durP2;ratioP2;P2;SDS_P1;SDS_P2;PMS_P1;PMS_P2;Temp;Humidity;BMP_temperature;BMP_pressure;BME280_temperature;BME280_humidity;BME280_pressure;Samples;Min_cycle;Max_cycle;Signal;HPM_P1;HPM_P2
2023/08/27 00:02:19;;;;;;;8.63;6.00;;;16.00;99.90;;;;;;4890871;29;20488;-66
2023/08/27 00:04:46;;;;;;;7.23;5.80;;;16.00;99.90;;;;;;4891352;29;20463;-66
2023/08/27 00:07:13;;;;;;;8.60;6.57;;;16.00;99.90;;;;;;4891263;29;20973;-66
2023/08/27 00:09:40;;;;;;;9.73;6.53;;;16.00;99.90;;;;;;4891361;29;21021;-66
2023/08/27 00:12:08;;;;;;;9.90;6.80;;;16.00;99.90;;;;;;4891191;29;20465;-66
2023/08/27 00:14:35;;;;;;;15.87;8.63;;;16.10;99.90;;;;;;4891398;29;20540;-66
2023/08/27 00:17:03;;;;;;;8.83;7.27;;;16.10;99.90;;;;;;4891242;29;20747;-66
2023/08/27 00:19:29;;;;;;;9.27;7.27;;;16.10;99.90;;;;;;4891033;29;20481;-67
2023/08/27 00:21:57;;;;;;;8.97;6.90;;;16.10;99.90;;;;;;4890669;29;20473;-67
2023/08/27 00:24:24;;;;;;;8.40;6.07;;;16.10;99.90;;;;;;4891051;29;20469;-66
2023/08/27 00:26:51;;;;;;;9.27;5.97;;;16.10;99.90;;;;;;4891128;29;20470;-66
2023/08/27 00:29:20;;;;;;;10.43;7.67;;;16.10;99.90;;;;;;4890517;29;20573;-66
2023/08/27 00:31:46;;;;;;;7.83;6.53;;;16.10;99.90;;;;;;4890928;29;20470;-66
2023/08/27 00:34:13;;;;;;;7.47;6.30;;;16.10;99.90;;;;;;4890666;29;20584;-66
2023/08/27 00:36:40;;;;;;;9.20;7.20;;;16.10;99.90;;;;;;4890817;29;20491;-66
2023/08/27 00:39:07;;;;;;;7.80;6.53;;;16.10;99.90;;;;;;4890925;29;20487;-66
2023/08/27 00:41:33;;;;;;;8.13;6.60;;;16.10;99.90;;;;;;4890503;29;20477;-67
2023/08/27 00:44:01;;;;;;;8.10;6.37;;;16.10;99.90;;;;;;4934590;23;21537;-93
2023/08/27 00:46:30;;;;;;;10.23;6.93;;;16.10;99.90;;;;;;4925590;28;20446;-93
2023/08/27 00:48:56;;;;;;;7.70;6.40;;;16.20;99.90;;;;;;4927499;28;20478;-93
2023/08/27 00:51:24;;;;;;;6.67;5.63;;;16.20;99.90;;;;;;4935652;29;20521;-93
2023/08/27 00:53:51;;;;;;;8.07;7.13;;;16.20;99.90;;;;;;4927748;28;20494;-94
2023/08/27 00:56:18;;;;;;;7.20;5.90;;;16.20;99.90;;;;;;4920043;28;20517;-95
2023/08/27 00:58:45;;;;;;;7.97;6.90;;;16.20;99.90;;;;;;4920671;28;20470;-94
2023/08/27 01:01:14;;;;;;;5.77;5.17;;;16.20;99.90;;;;;;4919885;29;20489;-93
2023/08/27 01:03:42;;;;;;;6.00;5.27;;;16.20;99.90;;;;;;4920185;28;20462;-92
2023/08/27 01:06:09;;;;;;;6.40;5.80;;;16.30;99.90;;;;;;4920887;28;20471;-93
2023/08/27 01:08:43;;;;;;;7.80;6.00;;;16.30;99.90;;;;;;4920899;28;20541;-93
2023/08/27 01:11:19;;;;;;;6.23;5.60;;;16.30;99.90;;;;;;4920096;28;20537;-94
2023/08/27 01:13:51;;;;;;;5.77;5.17;;;16.30;99.90;;;;;;4920244;28;20462;-93
2023/08/27 01:16:21;;;;;;;7.03;5.17;;;16.30;99.90;;;;;;4919627;28;20494;-93
2023/08/27 01:18:50;;;;;;;5.67;4.90;;;16.30;99.90;;;;;;4919958;28;20466;-94
2023/08/27 01:21:22;;;;;;;8.10;5.07;;;16.30;99.90;;;;;;4920535;28;20447;-94
2023/08/27 01:23:49;;;;;;;5.90;5.40;;;16.30;99.90;;;;;;4920451;28;20462;-94
2023/08/27 01:26:23;;;;;;;7.50;5.57;;;16.40;99.90;;;;;;4920055;28;20560;-94
2023/08/27 01:28:55;;;;;;;5.30;4.60;;;16.30;99.90;;;;;;4920426;28;20469;-94
2023/08/27 01:31:27;;;;;;;5.80;5.17;;;16.30;99.90;;;;;;4920296;28;20526;-94
2023/08/27 01:33:56;;;;;;;6.83;5.20;;;16.30;99.90;;;;;;4920401;28;20521;-93
2023/08/27 01:36:26;;;;;;;6.13;5.30;;;16.40;99.90;;;;;;4920488;28;20483;-94
2023/08/27 01:38:53;;;;;;;6.33;5.40;;;16.40;99.90;;;;;;4920707;28;20521;-94
2023/08/27 01:41:19;;;;;;;7.03;5.90;;;16.40;99.90;;;;;;4919686;28;20513;-93
2023/08/27 01:43:46;;;;;;;6.47;5.70;;;16.40;99.90;;;;;;4919595;29;20470;-94
2023/08/27 01:46:16;;;;;;;6.13;5.43;;;16.40;99.90;;;;;;4920073;29;20463;-95
2023/08/27 01:48:42;;;;;;;7.80;5.43;;;16.40;99.90;;;;;;4920189;28;20513;-93
2023/08/27 01:51:09;;;;;;;8.57;5.07;;;16.40;99.90;;;;;;4920061;28;20466;-94
2023/08/27 01:53:37;;;;;;;5.03;4.53;;;16.30;99.90;;;;;;4920040;28;20463;-93
2023/08/27 01:56:05;;;;;;;5.43;4.53;;;16.30;99.90;;;;;;4920679;28;21179;-93
2023/08/27 01:58:32;;;;;;;4.50;4.10;;;16.30;99.90;;;;;;4920617;28;20494;-94
2023/08/27 02:00:59;;;;;;;7.30;5.50;;;16.30;99.90;;;;;;4920742;28;20514;-94
2023/08/27 02:03:26;;;;;;;5.03;4.53;;;16.30;99.90;;;;;;4920568;28;20491;-94
2023/08/27 02:05:53;;;;;;;6.20;5.20;;;16.30;99.90;;;;;;4920017;28;20489;-93
2023/08/27 02:08:19;;;;;;;5.67;5.10;;;16.30;99.90;;;;;;4918768;29;20550;-93
2023/08/27 02:10:50;;;;;;;6.97;5.63;;;16.40;99.90;;;;;;4918815;28;20534;-92
2023/08/27 02:13:17;;;;;;;5.60;4.57;;;16.40;99.90;;;;;;4918574;28;20451;-93
2023/08/27 02:15:44;;;;;;;4.93;4.47;;;16.40;99.90;;;;;;4919609;29;20560;-93
2023/08/27 02:18:11;;;;;;;5.33;4.83;;;16.40;99.90;;;;;;4921521;29;20564;-92
2023/08/27 02:20:38;;;;;;;4.80;4.40;;;16.40;99.90;;;;;;4920531;29;20513;-93
2023/08/27 02:23:05;;;;;;;5.07;4.40;;;16.40;99.90;;;;;;4920560;29;20692;-93
2023/08/27 02:25:31;;;;;;;5.50;5.00;;;16.40;99.90;;;;;;4920484;29;20557;-92
2023/08/27 02:28:00;;;;;;;7.13;5.37;;;16.40;99.90;;;;;;4921383;29;20529;-94
2023/08/27 02:30:26;;;;;;;5.27;4.73;;;16.40;99.90;;;;;;4920623;29;20490;-93
2023/08/27 02:32:53;;;;;;;6.10;5.43;;;16.40;99.90;;;;;;4920568;29;20487;-92
2023/08/27 02:35:20;;;;;;;6.83;4.70;;;16.40;99.90;;;;;;4920869;29;20561;-92
2023/08/27 02:37:47;;;;;;;4.73;4.23;;;16.40;99.90;;;;;;4921640;29;20518;-94
2023/08/27 02:40:15;;;;;;;4.50;4.10;;;16.40;99.90;;;;;;4922062;29;20529;-94
2023/08/27 02:42:42;;;;;;;5.47;4.87;;;16.40;99.90;;;;;;4906987;28;20463;-93
2023/08/27 02:45:10;;;;;;;5.87;4.50;;;16.30;99.90;;;;;;4921749;28;20487;-94
2023/08/27 02:47:38;;;;;;;5.70;5.10;;;16.30;99.90;;;;;;4922303;28;20466;-92
2023/08/27 02:50:06;;;;;;;4.80;4.40;;;16.30;99.90;;;;;;4921999;29;20457;-93
2023/08/27 02:52:33;;;;;;;4.77;4.33;;;16.20;99.90;;;;;;4921967;28;20485;-93
2023/08/27 02:55:00;;;;;;;4.73;4.33;;;16.20;99.90;;;;;;4921303;29;20473;-93
2023/08/27 02:57:27;;;;;;;6.10;4.17;;;16.30;99.90;;;;;;4920635;29;20482;-94
2023/08/27 02:59:53;;;;;;;5.30;4.80;;;16.30;99.90;;;;;;4920646;29;20519;-93
2023/08/27 03:02:21;;;;;;;4.80;4.30;;;16.30;99.90;;;;;;4921565;29;20450;-93
2023/08/27 03:04:48;;;;;;;5.20;4.70;;;16.30;99.90;;;;;;4921872;28;20483;-94
2023/08/27 03:07:15;;;;;;;5.03;4.50;;;16.30;99.90;;;;;;4921642;29;20522;-94
2023/08/27 03:09:42;;;;;;;4.97;4.17;;;16.30;99.90;;;;;;4920953;29;20467;-93
2023/08/27 03:12:09;;;;;;;5.10;4.60;;;16.30;99.90;;;;;;4920700;29;20469;-94
2023/08/27 03:14:36;;;;;;;6.30;4.60;;;16.30;99.90;;;;;;4921920;28;20485;-94
2023/08/27 03:17:02;;;;;;;5.23;4.73;;;16.30;99.90;;;;;;4921909;28;20509;-93
2023/08/27 03:19:31;;;;;;;5.70;4.40;;;16.30;99.90;;;;;;4920735;28;20486;-93
2023/08/27 03:21:57;;;;;;;5.27;4.77;;;16.30;99.90;;;;;;4921662;28;20545;-94
2023/08/27 03:24:24;;;;;;;5.93;5.33;;;16.30;99.90;;;;;;4921624;29;20485;-93
2023/08/27 03:26:51;;;;;;;5.50;4.77;;;16.20;99.90;;;;;;4922574;28;20494;-94
2023/08/27 03:29:18;;;;;;;5.00;4.60;;;16.20;99.90;;;;;;4922709;28;20466;-92
2023/08/27 03:31:45;;;;;;;4.50;4.10;;;16.20;99.90;;;;;;4922435;28;20524;-93
2023/08/27 03:34:12;;;;;;;4.90;4.40;;;16.20;99.90;;;;;;4922121;28;20558;-93
2023/08/27 03:36:40;;;;;;;4.93;4.23;;;16.20;99.90;;;;;;4921610;28;20481;-93
2023/08/27 03:39:08;;;;;;;5.00;4.60;;;16.20;99.90;;;;;;4922014;28;20518;-94
2023/08/27 03:41:35;;;;;;;5.47;4.90;;;16.20;99.90;;;;;;4921857;28;20459;-94
2023/08/27 03:44:02;;;;;;;5.17;4.60;;;16.20;99.90;;;;;;4922034;28;20478;-93
2023/08/27 03:46:29;;;;;;;4.20;3.80;;;16.20;99.90;;;;;;4922448;28;20451;-94
2023/08/27 03:48:59;;;;;;;3.90;3.60;;;16.20;99.90;;;;;;4922075;28;20466;-93
2023/08/27 03:51:28;;;;;;;4.20;3.80;;;16.20;99.90;;;;;;4922010;28;20535;-93
2023/08/27 03:53:56;;;;;;;4.97;4.47;;;16.20;99.90;;;;;;4922025;28;20465;-94
2023/08/27 03:56:23;;;;;;;4.77;4.30;;;16.20;99.90;;;;;;4922089;28;20538;-93
2023/08/27 03:58:50;;;;;;;7.37;4.40;;;16.30;99.90;;;;;;4922188;28;20447;-94
2023/08/27 04:01:17;;;;;;;4.50;4.10;;;16.30;99.90;;;;;;4921582;28;20526;-94
2023/08/27 04:03:43;;;;;;;4.70;4.07;;;16.20;99.90;;;;;;4922016;28;20466;-93
2023/08/27 04:06:11;;;;;;;4.23;3.83;;;16.20;99.90;;;;;;4922057;28;20473;-92
2023/08/27 04:08:38;;;;;;;6.07;4.60;;;16.20;99.90;;;;;;4921823;28;20446;-94
2023/08/27 04:11:06;;;;;;;4.43;4.03;;;16.20;99.90;;;;;;4921889;28;20525;-94
2023/08/27 04:13:33;;;;;;;4.23;3.73;;;16.20;99.90;;;;;;4922079;28;20457;-95
2023/08/27 04:16:00;;;;;;;4.30;3.97;;;16.20;99.90;;;;;;4922070;28;20549;-94
2023/08/27 04:18:28;;;;;;;4.17;3.80;;;16.20;99.90;;;;;;4922100;28;20478;-94
2023/08/27 04:20:54;;;;;;;3.80;3.00;;;16.20;99.90;;;;;;4921685;28;20519;-94
2023/08/27 04:23:24;;;;;;;4.70;3.70;;;16.20;99.90;;;;;;4921885;28;20459;-93
2023/08/27 04:25:52;;;;;;;4.90;3.83;;;16.20;99.90;;;;;;4906766;28;20501;-94
2023/08/27 04:28:20;;;;;;;4.00;2.93;;;16.20;99.90;;;;;;4921564;28;20478;-94
2023/08/27 04:30:48;;;;;;;4.50;3.53;;;16.20;99.90;;;;;;4921828;28;20470;-94
2023/08/27 04:33:15;;;;;;;4.33;3.77;;;16.20;99.90;;;;;;4921925;28;20487;-94
2023/08/27 04:35:42;;;;;;;3.57;3.27;;;16.20;99.90;;;;;;4921965;28;20549;-93
2023/08/27 04:38:09;;;;;;;3.70;3.40;;;16.20;99.90;;;;;;4921141;28;20485;-93
2023/08/27 04:40:36;;;;;;;3.23;2.93;;;16.20;99.90;;;;;;4921668;28;20455;-94
2023/08/27 04:43:02;;;;;;;3.87;3.50;;;16.20;99.90;;;;;;4921932;28;20477;-93
2023/08/27 04:45:30;;;;;;;4.97;3.60;;;16.20;99.90;;;;;;4921718;28;20503;-94
2023/08/27 04:48:03;;;;;;;6.50;3.30;;;16.30;99.90;;;;;;4921626;28;20447;-94
2023/08/27 04:50:30;;;;;;;5.33;3.20;;;16.30;99.90;;;;;;4921715;28;20526;-95
2023/08/27 04:52:57;;;;;;;4.93;3.30;;;16.20;99.90;;;;;;4921504;28;20474;-94
2023/08/27 04:55:23;;;;;;;3.90;3.60;;;16.20;99.90;;;;;;4921672;28;20505;-94
2023/08/27 04:57:50;;;;;;;3.57;3.23;;;16.20;99.90;;;;;;4921509;28;20552;-95
2023/08/27 05:00:20;;;;;;;4.63;3.50;;;16.20;99.90;;;;;;4921267;28;20529;-94
2023/08/27 05:02:48;;;;;;;3.87;3.20;;;16.20;99.90;;;;;;4920319;28;20543;-94
2023/08/27 05:05:15;;;;;;;3.70;3.23;;;16.20;99.90;;;;;;4921363;28;20535;-95
2023/08/27 05:07:42;;;;;;;3.07;2.70;;;16.20;99.90;;;;;;4921368;28;20521;-94
2023/08/27 05:10:09;;;;;;;3.63;3.27;;;16.20;99.90;;;;;;4920747;28;20510;-95
2023/08/27 05:12:36;;;;;;;3.87;2.87;;;16.20;99.90;;;;;;4921513;28;20455;-95
2023/08/27 05:15:04;;;;;;;3.10;2.80;;;16.20;99.90;;;;;;4921231;28;20471;-94
2023/08/27 05:17:30;;;;;;;3.10;2.63;;;16.20;99.90;;;;;;4921390;28;20653;-94
2023/08/27 05:19:58;;;;;;;3.13;2.90;;;16.20;99.90;;;;;;4921425;28;20581;-94
2023/08/27 05:22:25;;;;;;;3.30;3.00;;;16.20;99.90;;;;;;4921417;28;20450;-94
2023/08/27 05:27:33;;;;;;;3.27;2.97;;;16.20;99.90;;;;;;4920136;28;20447;-94
2023/08/27 05:30:00;;;;;;;5.40;3.00;;;16.20;99.90;;;;;;4921281;28;20477;-94
2023/08/27 05:32:27;;;;;;;2.90;2.57;;;16.30;99.90;;;;;;4921407;28;20466;-94
2023/08/27 05:34:54;;;;;;;3.70;3.13;;;16.30;99.90;;;;;;4921109;28;20480;-94
2023/08/27 05:37:22;;;;;;;2.93;2.63;;;16.30;99.90;;;;;;4921108;28;20510;-94
2023/08/27 05:39:49;;;;;;;5.03;2.90;;;16.30;99.90;;;;;;4921214;28;20457;-94
2023/08/27 05:42:16;;;;;;;3.47;2.60;;;16.30;99.90;;;;;;4921174;28;20481;-94
2023/08/27 05:44:43;;;;;;;3.13;2.83;;;16.40;99.90;;;;;;4920974;28;20492;-94
2023/08/27 05:47:10;;;;;;;3.00;2.70;;;16.40;99.90;;;;;;4921209;28;20492;-95
2023/08/27 05:49:36;;;;;;;3.10;2.73;;;16.40;99.90;;;;;;4923244;28;20475;-94
2023/08/27 05:52:04;;;;;;;2.57;2.37;;;16.40;99.90;;;;;;4924660;28;20509;-93
2023/08/27 05:54:32;;;;;;;3.77;2.27;;;16.40;99.90;;;;;;4924796;28;20471;-94
2023/08/27 05:56:59;;;;;;;3.80;2.43;;;16.30;99.90;;;;;;4924621;28;20570;-94
2023/08/27 05:59:25;;;;;;;2.27;1.90;;;16.30;99.90;;;;;;4924715;28;20448;-94
2023/08/27 06:01:52;;;;;;;2.50;2.00;;;16.30;99.90;;;;;;4924552;28;20541;-95
2023/08/27 06:04:19;;;;;;;2.53;2.33;;;16.30;99.90;;;;;;4924355;28;20493;-94
2023/08/27 06:06:46;;;;;;;4.20;2.00;;;16.30;99.90;;;;;;4924774;28;20530;-94
2023/08/27 06:09:12;;;;;;;2.53;2.20;;;16.30;99.90;;;;;;4924268;28;20458;-94
2023/08/27 06:11:41;;;;;;;2.50;2.00;;;16.30;99.90;;;;;;4924435;28;20469;-93
2023/08/27 06:14:07;;;;;;;2.50;2.30;;;16.30;99.90;;;;;;4924173;28;20470;-94
2023/08/27 06:16:34;;;;;;;2.20;2.00;;;16.30;99.90;;;;;;4924408;28;20447;-94
2023/08/27 06:19:02;;;;;;;1.93;1.83;;;16.30;99.90;;;;;;4924015;28;20481;-92
2023/08/27 06:21:29;;;;;;;3.20;1.80;;;16.30;99.90;;;;;;4924139;28;20462;-94
2023/08/27 06:23:55;;;;;;;2.60;2.07;;;16.40;99.90;;;;;;4924282;28;20485;-95
2023/08/27 06:26:22;;;;;;;2.73;2.33;;;16.40;99.90;;;;;;4923970;28;20527;-94
2023/08/27 06:28:50;;;;;;;2.43;2.23;;;16.50;99.90;;;;;;4923960;28;20453;-94
2023/08/27 06:31:17;;;;;;;2.10;1.83;;;16.50;99.90;;;;;;4924254;28;20443;-94
2023/08/27 06:33:44;;;;;;;2.27;1.90;;;16.60;99.90;;;;;;4923762;28;20501;-93
2023/08/27 06:36:11;;;;;;;2.53;2.33;;;16.60;99.90;;;;;;4924143;28;20538;-94
2023/08/27 06:38:38;;;;;;;3.30;3.00;;;16.70;99.90;;;;;;4923387;28;20520;-95
2023/08/27 06:41:05;;;;;;;2.80;2.40;;;16.80;99.90;;;;;;4923987;28;20247;-94
2023/08/27 06:43:34;;;;;;;2.60;2.40;;;16.80;99.90;;;;;;4923803;28;20455;-93
2023/08/27 06:46:03;;;;;;;2.60;2.40;;;16.80;99.90;;;;;;4932174;23;20508;-66
2023/08/27 06:48:30;;;;;;;2.50;2.23;;;16.90;99.90;;;;;;4896963;29;21049;-67
2023/08/27 06:50:56;;;;;;;3.30;2.30;;;16.90;99.90;;;;;;4896858;29;20458;-67
2023/08/27 06:53:23;;;;;;;2.43;2.00;;;16.90;99.90;;;;;;4897235;29;20464;-66
2023/08/27 06:55:50;;;;;;;2.20;2.00;;;16.90;99.90;;;;;;4896994;29;20459;-67
2023/08/27 06:58:16;;;;;;;2.20;2.00;;;16.90;99.90;;;;;;4896764;29;20485;-67
2023/08/27 07:00:44;;;;;;;2.53;2.33;;;16.90;99.90;;;;;;4896204;29;20469;-67
2023/08/27 07:03:13;;;;;;;2.50;2.30;;;17.00;99.90;;;;;;4896848;29;20625;-66
2023/08/27 07:05:40;;;;;;;2.77;2.57;;;17.00;99.90;;;;;;4887080;29;20899;-67
2023/08/27 07:08:06;;;;;;;2.37;2.07;;;17.00;99.90;;;;;;4881214;29;20799;-67
2023/08/27 07:10:33;;;;;;;2.37;1.90;;;17.00;99.90;;;;;;4896746;29;21058;-66
2023/08/27 07:13:00;;;;;;;2.27;2.07;;;17.00;99.90;;;;;;4896449;29;20470;-67
2023/08/27 07:15:27;;;;;;;2.27;1.90;;;17.00;99.90;;;;;;4896389;29;20959;-66
2023/08/27 07:17:54;;;;;;;2.37;2.17;;;17.00;99.90;;;;;;4896045;29;20490;-67
2023/08/27 07:20:23;;;;;;;2.17;1.97;;;17.00;99.90;;;;;;4896602;29;20487;-67
2023/08/27 07:22:50;;;;;;;2.77;1.87;;;17.10;99.90;;;;;;4896067;29;20530;-67
2023/08/27 07:25:17;;;;;;;2.23;2.03;;;17.10;99.90;;;;;;4896358;29;20844;-67
2023/08/27 07:27:45;;;;;;;1.77;1.67;;;17.10;99.90;;;;;;4896020;29;20466;-67
2023/08/27 07:30:12;;;;;;;2.80;2.50;;;17.20;99.90;;;;;;4896140;29;20491;-66
2023/08/27 07:32:39;;;;;;;2.47;1.90;;;17.20;99.90;;;;;;4896239;29;20881;-66
2023/08/27 07:35:06;;;;;;;2.13;1.90;;;17.20;99.90;;;;;;4862282;29;20469;-67
2023/08/27 07:37:34;;;;;;;2.30;1.90;;;17.20;99.90;;;;;;4864888;29;21011;-67
2023/08/27 07:40:03;;;;;;;2.23;2.03;;;17.30;99.90;;;;;;4861514;29;20488;-66
2023/08/27 07:42:30;;;;;;;2.60;1.80;;;17.30;99.90;;;;;;4874541;29;20564;-67
2023/08/27 07:44:56;;;;;;;2.33;2.10;;;17.30;99.90;;;;;;4872683;29;20478;-66
2023/08/27 07:47:23;;;;;;;2.17;1.97;;;17.30;99.90;;;;;;4874810;29;20491;-67
2023/08/27 07:49:50;;;;;;;1.73;1.53;;;17.30;99.90;;;;;;4869096;29;20489;-67
2023/08/27 07:52:16;;;;;;;1.80;1.70;;;17.30;99.90;;;;;;4874128;29;20843;-67
2023/08/27 07:54:44;;;;;;;1.80;1.70;;;17.30;99.90;;;;;;4871771;29;20464;-67
2023/08/27 07:57:11;;;;;;;1.70;1.60;;;17.20;99.90;;;;;;4875695;29;20464;-66
2023/08/27 07:59:38;;;;;;;1.33;1.20;;;17.30;99.90;;;;;;4868578;29;20504;-66
2023/08/27 08:02:05;;;;;;;1.33;1.23;;;17.30;99.90;;;;;;4873164;29;20471;-66
2023/08/27 08:04:31;;;;;;;2.30;1.67;;;17.30;99.90;;;;;;4872466;29;20468;-66
2023/08/27 08:06:58;;;;;;;1.50;1.40;;;17.30;99.90;;;;;;4875980;29;20467;-66
2023/08/27 08:09:25;;;;;;;2.10;1.90;;;17.30;99.90;;;;;;4869970;29;20516;-66
2023/08/27 08:11:53;;;;;;;1.80;1.30;;;17.30;99.90;;;;;;4864587;29;20469;-66
2023/08/27 08:14:20;;;;;;;1.23;1.13;;;17.30;99.90;;;;;;4871936;29;20464;-66
2023/08/27 08:16:49;;;;;;;1.83;1.50;;;17.30;99.90;;;;;;4868002;29;20469;-66
2023/08/27 08:19:15;;;;;;;1.77;1.67;;;17.30;99.90;;;;;;4867696;29;20498;-66
2023/08/27 08:21:42;;;;;;;6.00;1.30;;;17.30;99.90;;;;;;4860689;29;20831;-66
2023/08/27 08:24:09;;;;;;;1.53;1.40;;;17.30;99.90;;;;;;4857464;29;20465;-66
2023/08/27 08:26:35;;;;;;;2.00;1.60;;;17.30;99.90;;;;;;4860559;29;20468;-66
2023/08/27 08:29:03;;;;;;;1.50;1.17;;;17.40;99.90;;;;;;4871854;29;20492;-66
2023/08/27 08:31:30;;;;;;;1.90;1.47;;;17.40;99.90;;;;;;4862837;29;20963;-66
2023/08/27 08:33:57;;;;;;;1.70;1.53;;;17.40;99.90;;;;;;4861408;29;20559;-67
2023/08/27 08:36:24;;;;;;;1.53;1.33;;;17.40;99.90;;;;;;4869609;29;20521;-66
2023/08/27 08:38:50;;;;;;;3.70;1.77;;;17.40;99.90;;;;;;4872238;29;20862;-66
2023/08/27 08:41:23;;;;;;;2.20;1.63;;;17.40;99.90;;;;;;4868234;29;20471;-66
2023/08/27 08:43:55;;;;;;;1.57;1.30;;;17.50;99.90;;;;;;4869021;29;20472;-66
2023/08/27 08:46:25;;;;;;;1.30;1.07;;;17.50;99.90;;;;;;4859476;29;20476;-66
2023/08/27 08:48:53;;;;;;;1.47;1.30;;;17.50;99.90;;;;;;4856396;29;20584;-66
2023/08/27 08:51:24;;;;;;;2.00;1.30;;;17.60;99.90;;;;;;4861421;29;20468;-67
2023/08/27 08:53:53;;;;;;;1.77;1.20;;;17.60;99.90;;;;;;4870082;29;20476;-67
2023/08/27 08:56:24;;;;;;;1.33;1.23;;;17.60;99.90;;;;;;4868329;29;20534;-66
2023/08/27 08:58:54;;;;;;;1.30;1.20;;;17.70;99.90;;;;;;4863443;29;20520;-66
2023/08/27 09:01:22;;;;;;;1.80;1.40;;;17.70;99.90;;;;;;4861384;29;20458;-66
2023/08/27 09:03:53;;;;;;;1.60;1.40;;;17.70;99.90;;;;;;4860648;29;20573;-66
2023/08/27 09:06:20;;;;;;;1.60;1.40;;;17.70;99.90;;;;;;4868652;29;20989;-66
2023/08/27 09:08:49;;;;;;;1.47;1.37;;;17.70;99.90;;;;;;4864437;29;20493;-66
2023/08/27 09:11:17;;;;;;;2.27;1.40;;;17.70;99.90;;;;;;4868952;29;20492;-66
2023/08/27 09:13:47;;;;;;;1.33;1.23;;;17.70;99.90;;;;;;4874518;29;20464;-66
2023/08/27 09:16:14;;;;;;;1.47;1.30;;;17.70;99.90;;;;;;4868347;29;20976;-66
2023/08/27 09:18:42;;;;;;;2.23;1.50;;;17.80;99.90;;;;;;4864160;29;21096;-67
2023/08/27 09:21:11;;;;;;;1.30;1.20;;;17.90;99.90;;;;;;4868786;29;20976;-66
2023/08/27 09:23:39;;;;;;;1.40;1.30;;;17.90;99.90;;;;;;4866283;29;20910;-67
2023/08/27 09:26:08;;;;;;;2.60;1.57;;;18.00;99.90;;;;;;4872648;29;20479;-66
2023/08/27 09:28:36;;;;;;;2.20;1.80;;;18.10;99.90;;;;;;4870154;29;20552;-66
2023/08/27 09:31:04;;;;;;;3.47;1.50;;;18.10;99.90;;;;;;4867482;29;21024;-67
2023/08/27 09:33:39;;;;;;;2.03;1.47;;;18.20;99.90;;;;;;4871237;29;20472;-67
2023/08/27 09:36:07;;;;;;;1.80;1.27;;;18.40;99.90;;;;;;4873559;29;20554;-66
2023/08/27 09:38:39;;;;;;;1.80;1.70;;;18.50;99.90;;;;;;4871203;29;21016;-66
2023/08/27 09:41:17;;;;;;;2.20;2.00;;;18.60;99.90;;;;;;4872277;29;20477;-67
2023/08/27 09:43:53;;;;;;;2.53;1.30;;;18.70;99.90;;;;;;4883011;29;20463;-67
2023/08/27 09:46:22;;;;;;;1.57;1.33;;;18.90;99.90;;;;;;4879570;29;20468;-67
2023/08/27 09:48:59;;;;;;;2.13;1.70;;;19.00;99.90;;;;;;4871788;29;20488;-66
2023/08/27 09:51:28;;;;;;;1.50;1.40;;;19.10;99.90;;;;;;4869438;29;21033;-66
2023/08/27 09:54:00;;;;;;;1.73;1.57;;;19.00;99.90;;;;;;4878812;29;20517;-66
2023/08/27 09:56:27;;;;;;;1.90;1.50;;;19.00;99.90;;;;;;4876819;29;20460;-67
2023/08/27 09:58:56;;;;;;;1.37;1.20;;;19.00;99.90;;;;;;4871996;29;20502;-66
2023/08/27 10:01:25;;;;;;;1.50;1.40;;;19.00;99.90;;;;;;4868084;29;20507;-66
2023/08/27 10:03:54;;;;;;;1.70;1.30;;;19.10;99.90;;;;;;4879379;29;20479;-66
2023/08/27 10:06:21;;;;;;;1.80;1.50;;;19.00;99.90;;;;;;4875593;29;20477;-66
2023/08/27 10:08:58;;;;;;;2.60;1.30;;;19.00;99.90;;;;;;4874626;29;20563;-66
2023/08/27 10:11:25;;;;;;;1.47;1.37;;;19.00;99.90;;;;;;4868250;29;20464;-67
2023/08/27 10:13:53;;;;;;;1.57;1.30;;;19.00;99.90;;;;;;4881127;29;20529;-66
2023/08/27 10:16:22;;;;;;;1.30;1.20;;;19.00;99.90;;;;;;4883571;29;20535;-66
2023/08/27 10:18:50;;;;;;;2.30;1.60;;;19.00;99.90;;;;;;4862953;29;20502;-66
2023/08/27 10:21:19;;;;;;;1.40;1.30;;;19.10;99.90;;;;;;4859247;29;20474;-66
2023/08/27 10:23:47;;;;;;;1.93;1.43;;;19.10;99.90;;;;;;4868843;29;20574;-66
2023/08/27 10:26:17;;;;;;;2.03;1.57;;;19.20;99.90;;;;;;4864602;29;20479;-66
2023/08/27 10:28:46;;;;;;;1.43;1.17;;;19.20;99.90;;;;;;4863024;29;20836;-66
2023/08/27 10:31:13;;;;;;;2.10;1.37;;;19.20;99.90;;;;;;4865902;29;20480;-66
2023/08/27 10:33:41;;;;;;;2.00;1.67;;;19.20;99.90;;;;;;4874275;29;20473;-66
2023/08/27 10:36:16;;;;;;;1.63;1.53;;;19.30;99.90;;;;;;4874077;29;20517;-66
2023/08/27 10:38:46;;;;;;;1.87;1.27;;;19.30;99.90;;;;;;4875894;29;20500;-64
2023/08/27 10:41:18;;;;;;;3.60;1.70;;;19.40;99.90;;;;;;4866438;29;20475;-64
2023/08/27 10:43:46;;;;;;;2.87;1.60;;;19.40;99.90;;;;;;4872580;29;20920;-66
2023/08/27 10:46:16;;;;;;;1.40;1.30;;;19.40;99.90;;;;;;4860235;29;20473;-67
2023/08/27 10:48:49;;;;;;;5.17;1.23;;;19.40;99.90;;;;;;4875680;29;20504;-66
2023/08/27 10:51:17;;;;;;;1.63;1.37;;;19.40;99.90;;;;;;4867622;29;20469;-66
2023/08/27 10:53:56;;;;;;;1.90;1.57;;;19.40;99.90;;;;;;4874362;29;20470;-66
2023/08/27 10:56:29;;;;;;;2.03;1.60;;;19.40;99.90;;;;;;4868880;29;20568;-67
2023/08/27 10:59:00;;;;;;;1.70;1.50;;;19.40;99.90;;;;;;4863327;29;20553;-66
2023/08/27 11:01:27;;;;;;;1.80;1.37;;;19.50;99.90;;;;;;4869702;29;20489;-66
2023/08/27 11:04:01;;;;;;;2.00;1.60;;;19.40;99.90;;;;;;4891398;29;20952;-66
2023/08/27 11:06:44;;;;;;;2.40;2.20;;;19.40;99.90;;;;;;4896067;29;20465;-66
2023/08/27 11:09:18;;;;;;;1.60;1.50;;;19.50;99.90;;;;;;4893865;29;20478;-66
2023/08/27 11:11:49;;;;;;;3.20;1.43;;;19.40;99.90;;;;;;4895210;29;20469;-66
2023/08/27 11:14:16;;;;;;;1.50;1.40;;;19.50;99.90;;;;;;4896530;29;20466;-67
2023/08/27 11:16:45;;;;;;;1.67;1.43;;;19.50;99.90;;;;;;4896738;29;20953;-67
2023/08/27 11:19:12;;;;;;;3.13;1.37;;;19.60;99.90;;;;;;4885746;29;20501;-66
2023/08/27 11:22:14;;;;;;;3.60;1.70;;;19.70;99.90;;;;;;4877177;29;20471;-67
2023/08/27 11:24:43;;;;;;;2.57;1.60;;;19.70;99.90;;;;;;4873035;29;20471;-66
2023/08/27 11:27:12;;;;;;;2.20;1.70;;;19.70;99.90;;;;;;4869463;29;20984;-66
2023/08/27 11:29:41;;;;;;;1.73;1.40;;;19.70;99.90;;;;;;4882547;29;21049;-67
2023/08/27 11:32:09;;;;;;;1.50;1.40;;;19.60;99.90;;;;;;4868903;29;20464;-66
2023/08/27 11:34:38;;;;;;;2.30;1.90;;;19.60;99.90;;;;;;4873162;29;20462;-67
2023/08/27 11:37:05;;;;;;;4.73;1.80;;;19.60;99.90;;;;;;4858528;29;20549;-66
2023/08/27 11:39:34;;;;;;;2.90;1.70;;;19.70;99.90;;;;;;4857611;29;20494;-66
2023/08/27 11:42:02;;;;;;;1.73;1.50;;;19.70;99.90;;;;;;4865970;29;20473;-66
2023/08/27 11:44:30;;;;;;;1.63;1.50;;;19.70;99.90;;;;;;4872642;29;20539;-66
2023/08/27 11:47:05;;;;;;;1.60;1.50;;;19.70;99.90;;;;;;4865740;29;20506;-67
2023/08/27 11:49:35;;;;;;;2.13;1.37;;;19.80;99.90;;;;;;4869820;29;20517;-67
2023/08/27 11:52:03;;;;;;;1.87;1.50;;;19.80;99.90;;;;;;4870264;29;20520;-67
2023/08/27 11:54:32;;;;;;;1.20;1.10;;;19.80;99.90;;;;;;4874763;29;20464;-66
2023/08/27 11:57:02;;;;;;;1.60;1.50;;;19.80;99.90;;;;;;4867567;29;20504;-66
2023/08/27 11:59:30;;;;;;;1.57;1.40;;;19.80;99.90;;;;;;4869313;29;20925;-67
2023/08/27 12:01:58;;;;;;;1.70;1.30;;;19.70;99.90;;;;;;4877067;29;20505;-66
2023/08/27 12:04:26;;;;;;;2.70;1.73;;;19.80;99.90;;;;;;4876956;29;20950;-66
2023/08/27 12:06:54;;;;;;;1.57;1.47;;;19.80;99.90;;;;;;4860299;29;20464;-67
2023/08/27 12:09:24;;;;;;;2.03;1.70;;;19.80;99.90;;;;;;4860717;29;21036;-66
2023/08/27 12:11:51;;;;;;;1.60;1.43;;;19.80;99.90;;;;;;4870492;29;21007;-66
2023/08/27 12:14:24;;;;;;;1.47;1.37;;;19.70;99.90;;;;;;4875922;29;20471;-66
2023/08/27 12:16:53;;;;;;;2.30;2.10;;;19.80;99.90;;;;;;4860914;29;20478;-67
2023/08/27 12:19:20;;;;;;;1.97;1.70;;;19.80;99.90;;;;;;4865796;29;20863;-67
2023/08/27 12:21:49;;;;;;;1.77;1.30;;;19.80;99.90;;;;;;4871099;29;20553;-66
2023/08/27 12:24:33;;;;;;;1.30;1.10;;;19.80;99.90;;;;;;4878962;29;20818;-66
2023/08/27 12:27:03;;;;;;;1.77;1.67;;;19.80;99.90;;;;;;4867858;29;20464;-67
2023/08/27 12:29:32;;;;;;;1.73;1.60;;;19.80;99.90;;;;;;4877594;29;20478;-67
2023/08/27 12:32:07;;;;;;;1.53;1.43;;;19.80;99.90;;;;;;4867585;29;20479;-67
2023/08/27 12:34:36;;;;;;;1.57;1.20;;;19.80;99.90;;;;;;4870504;29;20470;-66
2023/08/27 12:37:04;;;;;;;1.70;1.40;;;19.90;99.90;;;;;;4870217;29;20470;-67
2023/08/27 12:39:31;;;;;;;1.97;1.30;;;19.80;99.90;;;;;;4869504;29;20496;-67
2023/08/27 12:41:58;;;;;;;1.73;1.40;;;19.80;99.90;;;;;;4873827;29;20967;-66
2023/08/27 12:44:25;;;;;;;1.67;1.57;;;19.80;99.90;;;;;;4873253;29;20475;-66
2023/08/27 12:46:52;;;;;;;3.00;1.60;;;19.80;99.90;;;;;;4865993;29;20476;-67
2023/08/27 12:49:20;;;;;;;1.93;1.67;;;19.90;99.90;;;;;;4860675;29;20487;-66
2023/08/27 12:51:47;;;;;;;1.53;1.43;;;19.90;99.90;;;;;;4874001;29;20485;-66
2023/08/27 12:54:13;;;;;;;1.57;1.47;;;19.80;99.90;;;;;;4875549;29;20469;-66